Terminal Aerodrome Forecast
Issued by NWS Wilmington, OH

Current Version | Previous Version | Graphics & Text | Print | Product List | Glossary On
Versions: 1 2 3 4 5 6 7 8 9 10 11 12 13 14 15 16 17 18
826
FTUS41 KILN 202336
TAFILN
TAF
KILN 202336Z 2100/2124 19003KT P6SM BKN250
     FM210800 21003KT P6SM SCT050 BKN120
     FM211400 22009KT P6SM SCT050 BKN200=

USA.gov is the U.S. government's official web portal to all federal, state and local government web resources and services.